createdAt,value
2019-02-24T00:01:58.540Z,23.90
2019-02-24T00:07:00.241Z,24.43
2019-02-24T00:12:01.924Z,29.50
2019-02-24T00:17:03.616Z,28.10
2019-02-24T00:22:05.353Z,30.67
2019-02-24T00:27:07.126Z,27.37
2019-02-24T00:32:08.891Z,28.07
2019-02-24T00:37:10.667Z,26.53
2019-02-24T00:42:12.345Z,28.37
2019-02-24T00:47:14.113Z,27.00
2019-02-24T00:52:20.224Z,29.70
2019-02-24T00:57:31.010Z,28.20
2019-02-24T01:02:35.609Z,28.67
2019-02-24T01:07:36.361Z,28.40
2019-02-24T01:12:38.045Z,25.80
2019-02-24T01:17:39.852Z,26.40
2019-02-24T01:22:41.612Z,25.53
2019-02-24T01:27:43.393Z,25.37
2019-02-24T01:32:46.461Z,28.00
2019-02-24T01:37:48.185Z,23.73
2019-02-24T01:42:49.949Z,23.27
2019-02-24T01:47:51.720Z,22.93
2019-02-24T01:52:53.499Z,25.83
2019-02-24T01:57:58.597Z,24.37
2019-02-24T02:03:00.847Z,23.17
2019-02-24T02:08:02.613Z,25.57
2019-02-24T02:13:04.292Z,22.03
2019-02-24T02:18:06.077Z,20.77
2019-02-24T02:23:07.777Z,21.87
2019-02-24T02:28:09.517Z,20.27
2019-02-24T02:33:11.357Z,23.23
2019-02-24T02:38:13.080Z,28.93
2019-02-24T02:43:16.646Z,23.30
2019-02-24T02:48:18.361Z,26.03
2019-02-24T02:53:20.137Z,25.77
2019-02-24T02:58:21.917Z,33.43
2019-02-24T03:03:23.685Z,25.17
2019-02-24T03:08:44.697Z,33.97
2019-02-24T03:13:46.381Z,27.90
2019-02-24T03:18:48.169Z,27.87
2019-02-24T03:23:49.942Z,28.93
2019-02-24T03:28:51.729Z,39.23
2019-02-24T03:33:53.498Z,31.80
2019-02-24T03:38:55.286Z,32.47
2019-02-24T03:43:57.061Z,22.37
2019-02-24T03:48:58.771Z,29.67
2019-02-24T03:54:00.517Z,29.63
2019-02-24T03:59:02.290Z,25.40
2019-02-24T04:04:04.061Z,29.00
2019-02-24T04:09:05.757Z,24.97
2019-02-24T04:14:07.433Z,38.60
2019-02-24T04:19:09.203Z,27.93
2019-02-24T04:24:10.977Z,24.20
2019-02-24T04:29:12.739Z,32.70
2019-02-24T04:34:14.523Z,28.67
2019-02-24T04:39:16.301Z,25.43
2019-02-24T04:44:18.002Z,24.93
2019-02-24T04:49:19.748Z,36.87
2019-02-24T04:54:21.521Z,24.57
2019-02-24T04:59:23.288Z,25.30
2019-02-24T05:04:25.074Z,27.93
2019-02-24T05:09:26.945Z,27.43
2019-02-24T05:14:28.625Z,29.07
2019-02-24T05:19:30.402Z,25.50
2019-02-24T05:24:32.170Z,29.73
2019-02-24T05:29:33.948Z,27.30
2019-02-24T05:34:35.725Z,28.03
2019-02-24T05:39:37.505Z,32.57
2019-02-24T05:44:39.285Z,35.93
2019-02-24T05:49:41.065Z,26.53
2019-02-24T05:54:42.827Z,35.73
2019-02-24T05:59:44.613Z,26.03
2019-02-24T06:04:46.380Z,28.10
2019-02-24T06:09:48.161Z,27.63
2019-02-24T06:14:49.843Z,35.13
2019-02-24T06:19:51.634Z,26.70
2019-02-24T06:24:53.388Z,27.07
2019-02-24T06:30:04.260Z,31.10
2019-02-24T06:34:58.682Z,28.83
2019-02-24T06:40:00.474Z,37.03
2019-02-24T06:45:02.144Z,35.53
2019-02-24T06:50:03.931Z,30.53
2019-02-24T06:55:05.687Z,26.03
2019-02-24T07:00:13.877Z,33.07
2019-02-24T07:05:11.189Z,28.33
2019-02-24T07:10:12.962Z,30.70
2019-02-24T07:15:14.634Z,27.00
2019-02-24T07:20:16.406Z,29.60
2019-02-24T07:25:18.086Z,29.27
2019-02-24T07:30:23.482Z,31.20
2019-02-24T07:35:23.386Z,33.83
2019-02-24T07:40:25.162Z,27.50
2019-02-24T07:45:26.829Z,28.67
2019-02-24T07:50:28.611Z,33.20
2019-02-24T07:55:30.382Z,25.90
2019-02-24T08:00:32.669Z,23.93
2019-02-24T08:05:34.483Z,25.07
2019-02-24T08:10:36.251Z,26.87
2019-02-24T08:15:37.930Z,32.20
2019-02-24T08:20:39.682Z,20.57
2019-02-24T08:25:41.444Z,18.17
2019-02-24T08:30:43.225Z,26.07
2019-02-24T08:35:45.004Z,22.23
2019-02-24T08:40:46.672Z,21.13
2019-02-24T08:45:48.458Z,17.37
2019-02-24T08:50:50.129Z,22.77
2019-02-24T08:55:51.912Z,23.87
2019-02-24T09:00:53.619Z,23.00
2019-02-24T09:05:55.364Z,26.27
2019-02-24T09:10:57.124Z,17.20
2019-02-24T09:15:58.809Z,22.40
2019-02-24T09:21:00.594Z,23.57
2019-02-24T09:26:02.367Z,18.07
2019-02-24T09:31:04.144Z,24.67
2019-02-24T09:36:05.918Z,19.37
2019-02-24T09:41:07.708Z,19.63
2019-02-24T09:46:09.473Z,21.57
2019-02-24T09:51:11.156Z,17.97
2019-02-24T09:56:12.930Z,19.83
2019-02-24T10:01:14.709Z,20.33
2019-02-24T10:06:16.481Z,17.47
2019-02-24T10:11:18.165Z,21.10
2019-02-24T10:16:19.937Z,24.20
2019-02-24T10:21:21.723Z,24.57
2019-02-24T10:26:23.478Z,21.50
2019-02-24T10:31:25.169Z,20.37
2019-02-24T10:36:26.939Z,20.80
2019-02-24T10:41:28.709Z,19.13
2019-02-24T10:46:30.697Z,24.40
2019-02-24T10:51:36.656Z,26.73
2019-02-24T10:56:38.445Z,18.97
2019-02-24T11:01:40.213Z,19.10
2019-02-24T11:06:42.013Z,22.47
2019-02-24T11:11:43.773Z,19.13
2019-02-24T11:16:45.553Z,25.60
2019-02-24T11:21:47.320Z,21.57
2019-02-24T11:26:49.113Z,21.20
2019-02-24T11:31:50.884Z,22.60
2019-02-24T11:36:52.665Z,24.57
2019-02-24T11:41:54.445Z,24.63
2019-02-24T11:46:56.193Z,21.90
2019-02-24T11:52:03.906Z,21.97
2019-02-24T11:57:01.514Z,27.67
2019-02-24T12:02:03.301Z,23.93
2019-02-24T12:07:05.018Z,22.90
2019-02-24T12:12:06.771Z,23.10
2019-02-24T12:17:08.454Z,22.63
2019-02-24T12:22:10.181Z,26.20
2019-02-24T12:27:11.856Z,20.47
2019-02-24T12:37:33.617Z,22.00
2019-02-24T12:42:35.417Z,19.63
2019-02-24T12:47:37.186Z,22.53
2019-02-24T12:52:38.964Z,22.40
2019-02-24T12:57:40.664Z,25.53
2019-02-24T13:02:42.422Z,26.30
2019-02-24T13:07:44.090Z,24.83
2019-02-24T13:12:45.865Z,24.43
2019-02-24T13:17:47.657Z,25.07
2019-02-24T13:22:49.417Z,26.57
2019-02-24T13:27:51.097Z,25.77
2019-02-24T13:32:52.873Z,31.00
2019-02-24T13:37:54.553Z,27.60
2019-02-24T13:42:56.328Z,40.13
2019-02-24T13:47:57.997Z,28.47
2019-02-24T13:52:59.669Z,25.30
2019-02-24T13:58:01.457Z,28.93
2019-02-24T14:03:03.225Z,33.83
2019-02-24T14:08:04.906Z,31.17
2019-02-24T14:13:06.600Z,30.67
2019-02-24T14:18:08.353Z,27.67
2019-02-24T14:23:10.029Z,28.10
2019-02-24T14:28:11.802Z,32.83
2019-02-24T14:33:13.578Z,28.80
2019-02-24T14:38:15.349Z,32.47
2019-02-24T14:43:17.134Z,29.80
2019-02-24T14:48:18.912Z,23.93
2019-02-24T14:53:20.685Z,22.20
2019-02-24T14:58:22.477Z,23.07
2019-02-24T15:03:24.240Z,24.77
2019-02-24T15:08:26.027Z,20.90
2019-02-24T15:13:27.785Z,23.23
2019-02-24T15:18:29.601Z,24.43
2019-02-24T15:23:31.336Z,22.87
2019-02-24T15:28:33.025Z,22.50
2019-02-24T15:33:34.832Z,22.77
2019-02-24T15:38:36.573Z,20.90
2019-02-24T15:43:38.258Z,22.83
2019-02-24T15:48:40.023Z,23.50
2019-02-24T15:53:41.794Z,28.87
2019-02-24T15:58:43.574Z,28.40
2019-02-24T16:03:45.266Z,30.77
2019-02-24T16:08:47.012Z,31.13
2019-02-24T16:13:48.802Z,35.47
2019-02-24T16:18:50.563Z,38.67
2019-02-24T16:23:52.249Z,33.87
2019-02-24T16:28:54.029Z,38.60
2019-02-24T16:33:55.830Z,44.17
2019-02-24T16:38:57.598Z,41.63
2019-02-24T16:43:59.370Z,45.27
2019-02-24T16:49:03.217Z,38.93
2019-02-24T16:54:04.748Z,39.57
2019-02-24T16:59:06.531Z,39.47
2019-02-24T17:04:08.410Z,44.57
2019-02-24T17:09:10.208Z,44.27
2019-02-24T17:14:11.964Z,38.03
2019-02-24T17:19:13.848Z,44.10
2019-02-24T17:24:15.627Z,46.57
2019-02-24T17:29:19.120Z,41.67
2019-02-24T17:34:20.957Z,38.03
2019-02-24T17:39:28.442Z,39.27
2019-02-24T17:44:33.278Z,42.17
2019-02-24T17:49:35.626Z,38.13
2019-02-24T17:54:37.350Z,46.47
2019-02-24T17:59:40.723Z,39.43
2019-02-24T18:04:42.686Z,48.00
2019-02-24T18:09:44.412Z,42.73
2019-02-24T18:14:46.192Z,48.23
2019-02-24T18:19:47.978Z,43.07
2019-02-24T18:24:49.736Z,46.93
2019-02-24T18:29:51.617Z,44.10
2019-02-24T18:34:53.313Z,46.27
2019-02-24T18:39:55.074Z,41.00
2019-02-24T18:44:56.864Z,46.97
2019-02-24T18:49:58.641Z,48.17
2019-02-24T18:55:00.337Z,47.57
2019-02-24T19:00:02.087Z,46.33
2019-02-24T19:05:04.178Z,53.30
2019-02-24T19:10:06.677Z,48.23
2019-02-24T19:15:09.257Z,48.27
2019-02-24T19:20:20.788Z,53.27
2019-02-24T19:25:23.015Z,50.33
2019-02-24T19:30:24.819Z,50.70
2019-02-24T19:35:35.031Z,52.83
2019-02-24T19:40:38.312Z,47.57
2019-02-24T19:45:40.276Z,48.17
2019-02-24T19:50:42.234Z,52.77
2019-02-24T19:55:43.952Z,45.80
2019-02-24T20:00:45.746Z,43.60
2019-02-24T20:05:47.517Z,48.57
2019-02-24T20:10:49.203Z,42.80
2019-02-24T20:15:50.985Z,46.10
2019-02-24T20:20:52.770Z,50.57
2019-02-24T20:25:54.507Z,43.00
2019-02-24T20:30:56.277Z,44.70
2019-02-24T20:35:58.082Z,41.50
2019-02-24T20:40:59.835Z,45.57
2019-02-24T20:46:01.615Z,50.03
2019-02-24T20:51:03.379Z,46.03
2019-02-24T20:56:05.161Z,52.63
2019-02-24T21:01:10.290Z,43.43
2019-02-24T21:06:12.197Z,45.70
2019-02-24T21:11:13.966Z,47.27
2019-02-24T21:16:15.752Z,43.90
2019-02-24T21:21:17.462Z,45.00
2019-02-24T21:26:19.194Z,45.03
2019-02-24T21:31:20.993Z,43.60
2019-02-24T21:36:22.749Z,43.80
2019-02-24T21:41:24.540Z,42.83
2019-02-24T21:46:27.500Z,41.33
2019-02-24T21:51:29.315Z,44.23
2019-02-24T21:56:31.006Z,46.67
2019-02-24T22:01:32.762Z,41.03
2019-02-24T22:06:34.475Z,41.27
2019-02-24T22:11:36.205Z,45.73
2019-02-24T22:16:44.706Z,44.57
2019-02-24T22:21:42.223Z,48.00
2019-02-24T22:26:43.914Z,43.27
2019-02-24T22:31:45.687Z,40.93
2019-02-24T22:36:47.445Z,42.63
2019-02-24T22:41:49.234Z,44.73
2019-02-24T22:46:50.922Z,41.40
2019-02-24T22:51:52.672Z,41.20
2019-02-24T22:56:54.453Z,42.77
2019-02-24T23:01:56.226Z,42.33
2019-02-24T23:06:58.225Z,51.87
2019-02-24T23:11:59.989Z,44.90
2019-02-24T23:17:01.762Z,38.13
2019-02-24T23:22:03.533Z,40.60
2019-02-24T23:27:05.317Z,41.57
2019-02-24T23:32:07.093Z,44.33
2019-02-24T23:37:08.890Z,41.90
2019-02-24T23:42:10.641Z,40.50
2019-02-24T23:47:12.421Z,35.73
2019-02-24T23:52:14.199Z,35.90
2019-02-24T23:57:15.873Z,40.33
